createdAt,value
2022-09-06T00:01:30.806Z,3.40
2022-09-06T00:03:57.371Z,3.20
2022-09-06T00:06:23.919Z,3.60
2022-09-06T00:08:50.514Z,3.30
2022-09-06T00:11:18.049Z,3.40
2022-09-06T00:13:45.194Z,3.87
2022-09-06T00:16:17.030Z,3.77
2022-09-06T00:18:44.281Z,3.73
2022-09-06T00:21:26.227Z,3.30
2022-09-06T00:23:53.674Z,3.37
2022-09-06T00:26:21.685Z,3.17
2022-09-06T00:28:48.260Z,3.87
2022-09-06T00:31:23.851Z,3.60
2022-09-06T00:33:50.606Z,3.03
2022-09-06T00:36:17.776Z,3.13
2022-09-06T00:38:44.611Z,2.80
2022-09-06T00:41:13.641Z,3.30
2022-09-06T00:43:41.374Z,3.43
2022-09-06T00:46:10.884Z,3.17
2022-09-06T00:48:39.524Z,3.00
2022-09-06T00:51:10.864Z,3.10
2022-09-06T00:53:37.753Z,3.17
2022-09-06T00:56:04.840Z,2.70
2022-09-06T00:58:31.523Z,3.00
2022-09-06T01:00:58.061Z,3.07
2022-09-06T01:03:25.599Z,3.43
2022-09-06T01:06:17.088Z,3.30
2022-09-06T01:09:08.375Z,3.13
2022-09-06T01:11:59.581Z,3.03
2022-09-06T01:14:34.036Z,3.23
2022-09-06T01:17:11.095Z,3.10
2022-09-06T01:20:15.306Z,3.50
2022-09-06T01:22:51.317Z,3.20
2022-09-06T01:25:45.911Z,3.30
2022-09-06T01:28:30.780Z,4.00
2022-09-06T01:31:06.385Z,3.33
2022-09-06T01:33:43.488Z,3.10
2022-09-06T01:36:15.119Z,3.30
2022-09-06T01:38:41.733Z,3.00
2022-09-06T01:41:09.149Z,2.90
2022-09-06T01:43:40.116Z,3.43
2022-09-06T01:46:16.714Z,3.67
2022-09-06T01:49:08.180Z,3.30
2022-09-06T01:51:41.219Z,3.60
2022-09-06T01:54:29.551Z,3.90
2022-09-06T01:57:35.566Z,3.93
2022-09-06T02:00:09.461Z,3.93
2022-09-06T02:03:13.126Z,3.70
2022-09-06T02:05:46.429Z,4.03
2022-09-06T02:08:34.868Z,4.07
2022-09-06T02:11:03.907Z,4.53
2022-09-06T02:13:48.427Z,4.33
2022-09-06T02:16:22.241Z,3.90
2022-09-06T02:18:57.632Z,3.90
2022-09-06T02:21:30.512Z,3.80
2022-09-06T02:23:59.778Z,4.33
2022-09-06T02:26:28.888Z,3.67
2022-09-06T02:28:55.712Z,4.10
2022-09-06T02:31:31.373Z,3.50
2022-09-06T02:33:58.446Z,3.93
2022-09-06T02:36:25.505Z,3.93
2022-09-06T02:38:54.423Z,3.80
2022-09-06T02:41:24.044Z,3.60
2022-09-06T02:43:50.551Z,4.07
2022-09-06T02:46:17.186Z,4.33
2022-09-06T02:48:43.693Z,3.90
2022-09-06T02:51:10.519Z,3.93
2022-09-06T02:53:37.164Z,3.90
2022-09-06T02:56:04.598Z,3.60
2022-09-06T02:58:31.257Z,3.97
2022-09-06T03:00:57.963Z,3.90
2022-09-06T03:03:24.987Z,3.50
2022-09-06T03:05:53.295Z,3.97
2022-09-06T03:08:21.625Z,3.50
2022-09-06T03:10:49.865Z,3.10
2022-09-06T03:13:16.620Z,3.70
2022-09-06T03:15:43.125Z,3.40
2022-09-06T03:18:09.979Z,3.80
2022-09-06T03:20:37.365Z,4.00
2022-09-06T03:23:03.895Z,3.63
2022-09-06T03:25:30.338Z,3.90
2022-09-06T03:27:56.787Z,4.17
2022-09-06T03:30:23.296Z,3.63
2022-09-06T03:32:49.830Z,4.20
2022-09-06T03:35:16.294Z,4.17
2022-09-06T03:37:42.787Z,3.93
2022-09-06T03:40:10.179Z,3.90
2022-09-06T03:42:36.718Z,4.30
2022-09-06T03:45:03.594Z,3.90
2022-09-06T03:47:30.062Z,3.43
2022-09-06T03:49:56.521Z,3.90
2022-09-06T03:52:23.032Z,4.60
2022-09-06T03:54:49.555Z,4.53
2022-09-06T03:57:16.059Z,4.80
2022-09-06T03:59:42.549Z,4.23
2022-09-06T04:02:09.166Z,4.30
2022-09-06T04:04:35.728Z,4.30
2022-09-06T04:07:02.233Z,4.40
2022-09-06T04:09:28.849Z,4.77
2022-09-06T04:11:55.904Z,4.43
2022-09-06T04:14:22.701Z,5.10
2022-09-06T04:16:49.920Z,4.83
2022-09-06T04:19:16.489Z,4.57
2022-09-06T04:21:42.959Z,5.30
2022-09-06T04:24:09.498Z,5.00
2022-09-06T04:26:35.985Z,4.53
2022-09-06T04:29:02.450Z,4.43
2022-09-06T04:31:29.014Z,4.40
2022-09-06T04:33:55.548Z,4.17
2022-09-06T04:36:22.146Z,4.70
2022-09-06T04:38:48.595Z,4.47
2022-09-06T04:41:17.114Z,4.33
2022-09-06T04:43:43.632Z,4.50
2022-09-06T04:46:25.948Z,5.60
2022-09-06T04:48:54.039Z,4.80
2022-09-06T04:51:20.928Z,5.37
2022-09-06T04:53:47.607Z,4.50
2022-09-06T04:56:20.395Z,4.80
2022-09-06T04:58:48.310Z,4.90
2022-09-06T05:01:15.205Z,5.20
2022-09-06T05:03:41.854Z,4.20
2022-09-06T05:06:23.485Z,4.40
2022-09-06T05:08:50.208Z,4.50
2022-09-06T05:11:17.433Z,4.70
2022-09-06T05:13:46.456Z,4.63
2022-09-06T05:16:13.152Z,5.13
2022-09-06T05:18:39.752Z,5.60
2022-09-06T05:21:07.564Z,4.77
2022-09-06T05:23:34.054Z,9.57
2022-09-06T05:26:00.540Z,5.60
2022-09-06T05:28:27.034Z,5.20
2022-09-06T05:30:53.608Z,4.43
2022-09-06T05:33:22.526Z,4.97
2022-09-06T05:35:49.469Z,5.03
2022-09-06T05:38:15.991Z,4.83
2022-09-06T05:40:42.516Z,9.83
2022-09-06T05:43:09.006Z,6.13
2022-09-06T05:45:35.575Z,6.73
2022-09-06T05:48:02.243Z,5.57
2022-09-06T05:50:28.696Z,4.70
2022-09-06T05:52:55.206Z,4.70
2022-09-06T05:55:21.824Z,4.57
2022-09-06T05:57:48.262Z,5.23
2022-09-06T06:00:14.961Z,4.90
2022-09-06T06:02:41.942Z,4.63
2022-09-06T06:05:08.700Z,4.70
2022-09-06T06:07:35.483Z,3.93
2022-09-06T06:10:01.961Z,5.00
2022-09-06T06:12:28.451Z,6.83
2022-09-06T06:14:54.897Z,5.70
2022-09-06T06:17:21.459Z,5.40
2022-09-06T06:19:47.989Z,6.20
2022-09-06T06:22:14.496Z,5.77
2022-09-06T06:24:40.996Z,5.73
2022-09-06T06:27:07.510Z,6.57
2022-09-06T06:29:34.025Z,6.43
2022-09-06T06:32:00.627Z,5.33
2022-09-06T06:34:27.226Z,6.10
2022-09-06T06:36:53.708Z,5.60
2022-09-06T06:39:20.203Z,5.70
2022-09-06T06:41:47.891Z,5.57
2022-09-06T06:44:14.332Z,5.67
2022-09-06T06:46:41.670Z,5.37
2022-09-06T06:49:08.264Z,4.70
2022-09-06T06:51:37.254Z,5.47
2022-09-06T06:54:04.760Z,4.93
2022-09-06T06:56:33.957Z,4.10
2022-09-06T06:59:02.779Z,4.53
2022-09-06T07:01:31.454Z,5.00
2022-09-06T07:03:58.827Z,5.40
2022-09-06T07:09:15.304Z,5.13
2022-09-06T07:11:42.156Z,4.77
2022-09-06T07:14:08.919Z,5.70
2022-09-06T07:16:35.540Z,4.87
2022-09-06T07:19:02.201Z,3.83
2022-09-06T07:26:31.604Z,4.50
2022-09-06T07:29:00.912Z,4.93
2022-09-06T07:34:15.225Z,4.00
2022-09-06T07:36:41.799Z,4.07
2022-09-06T07:39:08.252Z,4.37
2022-09-06T07:41:34.741Z,3.90
2022-09-06T07:44:01.372Z,3.73
2022-09-06T07:46:27.873Z,3.20
2022-09-06T07:48:54.390Z,3.50
2022-09-06T07:51:23.404Z,3.80
2022-09-06T07:53:57.856Z,3.07
2022-09-06T07:56:30.135Z,3.13
2022-09-06T07:58:57.440Z,3.30
2022-09-06T08:01:31.529Z,4.07
2022-09-06T08:04:06.223Z,3.10
2022-09-06T08:09:22.794Z,3.27
2022-09-06T08:11:51.022Z,3.33
2022-09-06T08:14:17.562Z,3.43
2022-09-06T08:16:44.134Z,3.47
2022-09-06T08:19:12.372Z,3.50
2022-09-06T08:21:39.104Z,2.60
2022-09-06T08:24:07.785Z,3.00
2022-09-06T08:26:35.883Z,2.73
2022-09-06T08:29:06.778Z,2.83
2022-09-06T08:31:35.731Z,2.80
2022-09-06T08:34:02.792Z,2.23
2022-09-06T08:36:30.618Z,2.80
2022-09-06T08:39:01.126Z,2.53
2022-09-06T08:41:33.538Z,2.73
2022-09-06T08:47:04.448Z,2.20
2022-09-06T08:49:34.716Z,2.53
2022-09-06T08:52:16.652Z,2.67
2022-09-06T08:55:05.079Z,3.30
2022-09-06T08:57:40.638Z,2.37
2022-09-06T09:00:11.390Z,2.77
2022-09-06T09:02:42.864Z,1.97
2022-09-06T09:05:20.907Z,2.20
2022-09-06T09:07:58.906Z,2.27
2022-09-06T09:10:30.864Z,2.50
2022-09-06T09:12:57.888Z,2.07
2022-09-06T09:15:24.766Z,2.40
2022-09-06T09:17:53.373Z,2.23
2022-09-06T09:20:20.767Z,2.73
2022-09-06T09:22:48.234Z,2.27
2022-09-06T09:25:24.681Z,2.27
2022-09-06T09:27:57.805Z,2.20
2022-09-06T09:33:28.277Z,2.50
2022-09-06T09:35:58.147Z,2.50
2022-09-06T09:38:36.453Z,2.03
2022-09-06T09:41:06.152Z,2.03
2022-09-06T09:43:42.377Z,2.27
2022-09-06T09:46:11.727Z,2.10
2022-09-06T09:48:39.177Z,2.60
2022-09-06T09:51:27.444Z,1.90
2022-09-06T09:53:58.388Z,2.50
2022-09-06T09:56:36.936Z,1.90
2022-09-06T09:59:18.020Z,1.80
2022-09-06T10:01:44.920Z,2.00
2022-09-06T10:07:09.940Z,2.30
2022-09-06T10:09:39.639Z,2.10
2022-09-06T10:12:06.696Z,6.37
2022-09-06T10:14:41.785Z,6.67
2022-09-06T10:17:08.585Z,3.43
2022-09-06T10:19:41.995Z,2.10
2022-09-06T10:22:20.049Z,2.00
2022-09-06T10:25:09.715Z,2.40
2022-09-06T10:28:13.655Z,1.70
2022-09-06T10:30:54.155Z,1.60
2022-09-06T10:33:26.508Z,2.33
2022-09-06T10:35:54.379Z,5.97
2022-09-06T10:38:42.155Z,2.10
2022-09-06T10:41:37.020Z,1.93
2022-09-06T10:44:10.076Z,2.10
2022-09-06T10:46:38.051Z,1.90
2022-09-06T10:49:09.418Z,2.00
2022-09-06T10:51:45.722Z,3.20
2022-09-06T10:54:14.434Z,2.10
2022-09-06T10:57:01.851Z,3.07
2022-09-06T11:02:26.819Z,1.90
2022-09-06T11:10:37.618Z,1.97
2022-09-06T11:13:17.327Z,1.97
2022-09-06T11:16:06.668Z,1.77
2022-09-06T11:18:57.779Z,1.80
2022-09-06T11:21:50.601Z,4.17
2022-09-06T11:24:54.845Z,2.70
2022-09-06T11:27:34.624Z,1.90
2022-09-06T11:30:03.467Z,2.20
2022-09-06T11:32:50.274Z,3.03
2022-09-06T11:35:29.289Z,3.00
2022-09-06T11:38:26.884Z,4.20
2022-09-06T11:41:01.744Z,4.27
2022-09-06T11:43:53.531Z,2.50
2022-09-06T11:46:35.444Z,2.43
2022-09-06T11:49:03.570Z,2.40
2022-09-06T11:51:42.393Z,2.50
2022-09-06T11:54:23.215Z,2.77
2022-09-06T11:57:02.331Z,2.50
2022-09-06T11:59:39.064Z,2.30
2022-09-06T12:02:25.649Z,2.10
2022-09-06T12:05:00.492Z,2.40
2022-09-06T12:07:28.791Z,3.10
2022-09-06T12:09:55.256Z,2.60
2022-09-06T12:12:42.287Z,2.27
2022-09-06T12:15:29.205Z,2.60
2022-09-06T12:17:57.480Z,2.20
2022-09-06T12:20:48.954Z,2.50
2022-09-06T12:23:34.263Z,2.57
2022-09-06T12:26:05.815Z,2.73
2022-09-06T12:28:34.698Z,3.07
2022-09-06T12:31:19.971Z,2.77
2022-09-06T12:33:47.997Z,2.57
2022-09-06T12:36:18.006Z,2.93
2022-09-06T12:38:57.967Z,2.50
2022-09-06T12:41:27.435Z,2.30
2022-09-06T12:43:56.201Z,2.43
2022-09-06T12:46:25.589Z,2.30
2022-09-06T12:49:10.543Z,2.57
2022-09-06T12:51:39.029Z,2.47
2022-09-06T12:54:19.175Z,2.77
2022-09-06T12:56:45.694Z,2.50
2022-09-06T12:59:20.045Z,3.10
2022-09-06T13:01:50.303Z,3.50
2022-09-06T13:04:42.187Z,4.97
2022-09-06T13:07:14.547Z,2.53
2022-09-06T13:09:44.314Z,2.90
2022-09-06T13:12:33.409Z,2.27
2022-09-06T13:15:22.036Z,2.20
2022-09-06T13:17:48.575Z,1.80
2022-09-06T13:20:24.234Z,3.13
2022-09-06T13:22:54.238Z,1.70
2022-09-06T13:25:21.059Z,2.10
2022-09-06T13:27:58.129Z,2.10
2022-09-06T13:30:41.892Z,2.40
2022-09-06T13:33:24.198Z,1.73
2022-09-06T13:36:04.736Z,1.87
2022-09-06T13:38:33.195Z,1.70
2022-09-06T13:41:16.898Z,1.87
2022-09-06T13:43:45.941Z,2.33
2022-09-06T13:46:12.593Z,1.70
2022-09-06T13:48:39.943Z,1.60
2022-09-06T13:51:08.805Z,1.73
2022-09-06T13:53:35.654Z,2.40
2022-09-06T13:56:02.759Z,1.87
2022-09-06T13:58:29.863Z,2.27
2022-09-06T14:00:57.134Z,2.07
2022-09-06T14:03:32.855Z,2.20
2022-09-06T14:06:02.884Z,2.20
2022-09-06T14:08:49.261Z,1.93
2022-09-06T14:11:17.661Z,1.97
2022-09-06T14:13:44.878Z,2.20
2022-09-06T14:16:12.080Z,1.83
2022-09-06T14:18:38.771Z,2.17
2022-09-06T14:21:05.425Z,2.30
2022-09-06T14:23:31.940Z,2.70
2022-09-06T14:26:00.845Z,4.40
2022-09-06T14:28:27.780Z,2.90
2022-09-06T14:30:55.011Z,1.97
2022-09-06T14:33:21.570Z,2.00
2022-09-06T14:35:48.840Z,1.83
2022-09-06T14:38:15.590Z,2.17
2022-09-06T14:40:44.893Z,1.60
2022-09-06T14:43:11.700Z,1.83
2022-09-06T14:45:38.425Z,1.70
2022-09-06T14:48:05.593Z,1.77
2022-09-06T14:50:32.103Z,2.10
2022-09-06T14:52:58.759Z,1.90
2022-09-06T14:55:25.324Z,1.90
2022-09-06T14:57:52.335Z,1.77
2022-09-06T15:00:19.307Z,2.17
2022-09-06T15:02:45.813Z,3.87
2022-09-06T15:05:12.458Z,3.20
2022-09-06T15:07:38.976Z,1.90
2022-09-06T15:10:05.750Z,3.33
2022-09-06T15:12:32.378Z,2.00
2022-09-06T15:14:59.211Z,2.60
2022-09-06T15:17:25.720Z,1.60
2022-09-06T15:19:52.276Z,1.70
2022-09-06T15:22:18.812Z,1.63
2022-09-06T15:24:45.593Z,1.67
2022-09-06T15:27:12.443Z,1.90
2022-09-06T15:29:39.171Z,1.63
2022-09-06T15:32:05.843Z,1.77
2022-09-06T15:34:32.383Z,1.73
2022-09-06T15:36:58.924Z,1.60
2022-09-06T15:39:25.528Z,1.97
2022-09-06T15:41:52.102Z,1.90
2022-09-06T15:44:20.782Z,1.70
2022-09-06T15:46:54.744Z,2.30
2022-09-06T15:49:28.067Z,1.50
2022-09-06T15:51:56.896Z,1.73
2022-09-06T15:54:43.486Z,2.10
2022-09-06T15:57:10.653Z,3.17
2022-09-06T15:59:37.289Z,2.60
2022-09-06T16:02:03.924Z,3.30
2022-09-06T16:04:30.435Z,2.67
2022-09-06T16:06:57.053Z,2.60
2022-09-06T16:09:23.744Z,5.17
2022-09-06T16:11:50.316Z,16.40
2022-09-06T16:14:16.837Z,20.90
2022-09-06T16:16:44.092Z,7.60
2022-09-06T16:19:12.418Z,8.10
2022-09-06T16:21:41.652Z,16.10
2022-09-06T16:24:10.705Z,13.20
2022-09-06T16:26:40.124Z,7.03
2022-09-06T16:29:13.605Z,2.00
2022-09-06T16:31:41.014Z,1.73
2022-09-06T16:34:11.783Z,1.47
2022-09-06T16:36:39.283Z,2.60
2022-09-06T16:39:06.537Z,3.67
2022-09-06T16:41:40.414Z,2.37
2022-09-06T16:44:09.006Z,1.60
2022-09-06T16:46:35.634Z,1.70
2022-09-06T16:49:03.098Z,1.60
2022-09-06T16:51:31.382Z,1.70
2022-09-06T16:53:59.088Z,1.60
2022-09-06T16:56:31.731Z,1.60
2022-09-06T16:59:00.339Z,1.50
2022-09-06T17:01:29.687Z,1.40
2022-09-06T17:03:57.383Z,1.70
2022-09-06T17:06:24.328Z,1.50
2022-09-06T17:08:51.928Z,1.80
2022-09-06T17:11:20.923Z,1.67
2022-09-06T17:13:49.864Z,1.50
2022-09-06T17:16:35.940Z,1.70
2022-09-06T17:19:03.908Z,1.20
2022-09-06T17:21:31.003Z,1.80
2022-09-06T17:24:03.054Z,1.80
2022-09-06T17:26:31.183Z,1.90
2022-09-06T17:28:58.118Z,1.90
2022-09-06T17:31:26.054Z,1.83
2022-09-06T17:33:53.612Z,2.07
2022-09-06T17:36:26.612Z,1.70
2022-09-06T17:38:58.929Z,1.60
2022-09-06T17:41:28.278Z,1.60
2022-09-06T17:43:55.162Z,1.60
2022-09-06T17:46:27.905Z,1.63
2022-09-06T17:48:56.119Z,1.80
2022-09-06T17:51:23.260Z,2.03
2022-09-06T17:53:50.295Z,1.90
2022-09-06T17:56:18.664Z,2.10
2022-09-06T17:58:58.637Z,1.90
2022-09-06T18:01:29.357Z,1.93
2022-09-06T18:03:56.889Z,1.80
2022-09-06T18:06:25.921Z,1.80
2022-09-06T18:08:55.275Z,1.60
2022-09-06T18:11:25.561Z,1.93
2022-09-06T18:14:07.531Z,1.67
2022-09-06T18:16:35.611Z,1.40
2022-09-06T18:19:05.680Z,1.80
2022-09-06T18:21:34.857Z,2.07
2022-09-06T18:24:01.731Z,2.40
2022-09-06T18:26:28.646Z,1.90
2022-09-06T18:28:55.390Z,1.90
2022-09-06T18:31:25.446Z,2.00
2022-09-06T18:33:52.448Z,1.53
2022-09-06T18:36:21.427Z,2.00
2022-09-06T18:38:48.032Z,1.83
2022-09-06T18:41:34.721Z,2.23
2022-09-06T18:44:03.249Z,1.83
2022-09-06T18:46:31.859Z,1.80
2022-09-06T18:48:59.040Z,2.00
2022-09-06T18:51:26.212Z,2.20
2022-09-06T18:53:53.275Z,2.40
2022-09-06T18:56:20.345Z,1.80
2022-09-06T18:58:47.218Z,1.63
2022-09-06T19:01:17.951Z,2.07
2022-09-06T19:03:44.708Z,2.10
2022-09-06T19:06:14.023Z,2.40
2022-09-06T19:08:41.905Z,1.73
2022-09-06T19:11:11.823Z,1.70
2022-09-06T19:13:40.449Z,2.20
2022-09-06T19:16:08.206Z,1.70
2022-09-06T19:18:35.674Z,2.20
2022-09-06T19:21:05.035Z,1.97
2022-09-06T19:23:33.533Z,2.27
2022-09-06T19:26:07.009Z,2.10
2022-09-06T19:28:35.063Z,2.90
2022-09-06T19:31:13.266Z,10.33
2022-09-06T19:33:40.927Z,5.03
2022-09-06T19:36:12.007Z,3.70
2022-09-06T19:39:02.561Z,2.60
2022-09-06T19:41:28.224Z,2.43
2022-09-06T19:43:56.495Z,2.40
2022-09-06T19:46:23.641Z,2.33
2022-09-06T19:48:53.517Z,2.20
2022-09-06T19:51:20.550Z,2.50
2022-09-06T19:53:49.831Z,2.00
2022-09-06T19:56:19.345Z,2.37
2022-09-06T19:58:45.936Z,2.10
2022-09-06T20:01:17.876Z,2.40
2022-09-06T20:03:44.883Z,2.20
2022-09-06T20:06:12.032Z,2.43
2022-09-06T20:08:40.284Z,2.50
2022-09-06T20:11:09.012Z,2.40
2022-09-06T20:13:37.444Z,2.40
2022-09-06T20:16:06.142Z,2.60
2022-09-06T20:18:33.906Z,2.20
2022-09-06T20:21:00.381Z,2.20
2022-09-06T20:23:31.450Z,2.50
2022-09-06T20:26:04.440Z,4.30
2022-09-06T20:28:31.594Z,13.30
2022-09-06T20:31:03.567Z,9.57
2022-09-06T20:33:31.177Z,5.13
2022-09-06T20:36:05.081Z,4.20
2022-09-06T20:38:42.478Z,3.20
2022-09-06T20:41:14.735Z,4.00
2022-09-06T20:43:42.561Z,2.50
2022-09-06T20:46:16.856Z,2.60
2022-09-06T20:48:46.451Z,2.40
2022-09-06T20:51:19.460Z,2.53
2022-09-06T20:53:48.544Z,2.70
2022-09-06T20:56:21.577Z,2.00
2022-09-06T20:58:53.918Z,2.10
2022-09-06T21:01:23.113Z,2.07
2022-09-06T21:03:52.093Z,1.90
2022-09-06T21:06:20.356Z,2.00
2022-09-06T21:08:47.849Z,1.77
2022-09-06T21:11:14.709Z,2.17
2022-09-06T21:13:41.330Z,1.67
2022-09-06T21:16:08.916Z,1.83
2022-09-06T21:18:36.343Z,2.13
2022-09-06T21:21:06.156Z,2.23
2022-09-06T21:23:38.100Z,1.80
2022-09-06T21:26:10.090Z,1.93
2022-09-06T21:28:38.738Z,2.20
2022-09-06T21:31:11.922Z,2.20
2022-09-06T21:33:44.165Z,1.80
2022-09-06T21:36:13.932Z,1.97
2022-09-06T21:38:42.608Z,1.70
2022-09-06T21:41:10.419Z,2.37
2022-09-06T21:43:37.151Z,2.10
2022-09-06T21:46:10.134Z,2.73
2022-09-06T21:48:45.028Z,1.90
2022-09-06T21:51:14.112Z,2.00
2022-09-06T21:53:42.376Z,1.83
2022-09-06T21:56:09.274Z,2.13
2022-09-06T21:58:36.160Z,1.63
2022-09-06T22:01:03.678Z,1.80
2022-09-06T22:03:33.143Z,1.80
2022-09-06T22:05:59.709Z,1.60
2022-09-06T22:08:26.534Z,1.73
2022-09-06T22:10:53.130Z,1.70
2022-09-06T22:13:20.250Z,1.83
2022-09-06T22:15:46.872Z,1.63
2022-09-06T22:18:13.582Z,1.83
2022-09-06T22:20:40.135Z,1.83
2022-09-06T22:23:08.276Z,1.77
2022-09-06T22:25:34.848Z,1.90
2022-09-06T22:28:01.753Z,2.30
2022-09-06T22:30:28.335Z,2.07
2022-09-06T22:32:54.946Z,2.03
2022-09-06T22:35:21.845Z,2.37
2022-09-06T22:37:48.372Z,2.23
2022-09-06T22:40:14.979Z,2.33
2022-09-06T22:42:41.482Z,1.80
2022-09-06T22:45:08.443Z,1.80
2022-09-06T22:47:34.937Z,2.00
2022-09-06T22:50:01.683Z,2.00
2022-09-06T22:52:28.177Z,2.10
2022-09-06T22:54:54.663Z,1.83
2022-09-06T22:57:21.166Z,2.23
2022-09-06T22:59:48.551Z,2.40
2022-09-06T23:02:15.125Z,2.00
2022-09-06T23:04:41.676Z,2.33
2022-09-06T23:07:08.184Z,2.13
2022-09-06T23:09:34.666Z,1.90
2022-09-06T23:12:01.298Z,2.07
2022-09-06T23:14:28.432Z,1.90
2022-09-06T23:16:54.927Z,2.10
2022-09-06T23:19:21.708Z,1.60
2022-09-06T23:21:48.216Z,1.80
2022-09-06T23:24:14.740Z,1.80
2022-09-06T23:26:41.295Z,1.90
2022-09-06T23:29:07.909Z,1.90
2022-09-06T23:31:34.901Z,1.87
2022-09-06T23:34:02.495Z,1.90
2022-09-06T23:36:28.978Z,1.33
2022-09-06T23:38:56.161Z,1.83
2022-09-06T23:41:23.520Z,2.37
2022-09-06T23:43:50.139Z,2.07
2022-09-06T23:46:17.187Z,2.37
2022-09-06T23:48:44.208Z,2.20
2022-09-06T23:51:12.027Z,2.03
2022-09-06T23:53:39.225Z,1.70
2022-09-06T23:56:06.854Z,1.80
2022-09-06T23:58:33.382Z,1.87
